Time;durP1;ratioP1;P1;durP2;ratioP2;P2;SDS_P1;SDS_P2;PMS_P1;PMS_P2;Temp;Humidity;BMP_temperature;BMP_pressure;BME280_temperature;BME280_humidity;BME280_pressure;Samples;Min_cycle;Max_cycle;Signal;HPM_P1;HPM_P2
2021/03/14 00:00:27;;;;;;;4.50;0.90;;;7.50;99.90;;;;;;4992343;28;20643;-76
2021/03/14 00:02:53;;;;;;;2.63;1.15;;;7.50;99.90;;;;;;4991968;28;20879;-76
2021/03/14 00:05:19;;;;;;;2.50;0.80;;;7.50;99.90;;;;;;4992085;28;20163;-77
2021/03/14 00:07:45;;;;;;;3.05;0.90;;;7.50;99.90;;;;;;4991700;28;20208;-77
2021/03/14 00:10:14;;;;;;;3.87;1.67;;;7.40;99.90;;;;;;5007192;28;20523;-77
2021/03/14 00:12:40;;;;;;;4.57;1.02;;;7.40;99.90;;;;;;4992041;28;20171;-77
2021/03/14 00:15:07;;;;;;;2.23;0.80;;;7.30;99.90;;;;;;4990793;28;20183;-77
2021/03/14 00:17:33;;;;;;;1.80;0.70;;;7.30;99.90;;;;;;4991977;28;20175;-77
2021/03/14 00:19:59;;;;;;;3.05;1.00;;;7.30;99.90;;;;;;4991657;28;20560;-78
2021/03/14 00:22:25;;;;;;;2.07;0.97;;;7.30;99.90;;;;;;5007277;28;20191;-77
2021/03/14 00:24:51;;;;;;;2.60;0.85;;;7.20;99.90;;;;;;5007069;28;20254;-77
2021/03/14 00:27:17;;;;;;;2.70;1.17;;;7.30;99.90;;;;;;4992132;28;20250;-77
2021/03/14 00:29:42;;;;;;;2.40;0.90;;;7.30;99.90;;;;;;4996195;28;20674;-77
2021/03/14 00:32:08;;;;;;;4.03;0.90;;;7.30;99.90;;;;;;4991870;28;20272;-77
2021/03/14 00:34:34;;;;;;;4.53;1.47;;;7.40;99.90;;;;;;4991875;28;20230;-77
2021/03/14 00:37:00;;;;;;;2.50;0.90;;;7.40;99.90;;;;;;4991959;28;20172;-77
2021/03/14 00:39:25;;;;;;;2.67;1.00;;;7.40;99.90;;;;;;4991465;28;20191;-77
2021/03/14 00:41:51;;;;;;;5.50;1.43;;;7.40;99.90;;;;;;4991819;28;20610;-77
2021/03/14 00:44:17;;;;;;;4.00;1.10;;;7.50;99.90;;;;;;5007179;28;20163;-77
2021/03/14 00:46:43;;;;;;;5.70;1.33;;;7.50;99.90;;;;;;4991523;28;20566;-77
2021/03/14 00:49:16;;;;;;;4.30;0.97;;;7.50;99.90;;;;;;4991354;28;20233;-77
2021/03/14 00:51:42;;;;;;;4.18;1.35;;;7.50;99.90;;;;;;5007015;28;20659;-77
2021/03/14 00:54:11;;;;;;;2.90;0.95;;;7.60;99.90;;;;;;5009138;28;20258;-77
2021/03/14 00:56:37;;;;;;;3.80;1.40;;;7.50;99.90;;;;;;4995662;28;20178;-77
2021/03/14 00:59:03;;;;;;;4.90;1.20;;;7.60;99.90;;;;;;5010343;28;20790;-77
2021/03/14 01:01:29;;;;;;;5.07;1.13;;;7.60;99.90;;;;;;5010569;28;20270;-76
2021/03/14 01:03:55;;;;;;;3.95;1.20;;;7.60;99.90;;;;;;4995566;28;20171;-77
2021/03/14 01:06:22;;;;;;;6.03;1.40;;;7.60;99.90;;;;;;5016070;28;20517;-77
2021/03/14 01:08:49;;;;;;;2.78;1.02;;;7.70;99.90;;;;;;4998562;28;20167;-77
2021/03/14 01:11:15;;;;;;;6.22;1.45;;;7.70;99.90;;;;;;4995235;28;20222;-77
2021/03/14 01:14:04;;;;;;;1.73;1.10;;;7.80;99.90;;;;;;5010180;28;20550;-77
2021/03/14 01:16:39;;;;;;;1.85;0.80;;;7.80;99.90;;;;;;4992852;28;20325;-77
2021/03/14 01:19:06;;;;;;;5.45;1.65;;;7.80;99.90;;;;;;5011156;28;20210;-77
2021/03/14 01:21:32;;;;;;;3.33;1.07;;;7.80;99.90;;;;;;4996620;28;20179;-77
2021/03/14 01:23:58;;;;;;;2.63;0.80;;;7.80;99.90;;;;;;4993547;28;20574;-77
2021/03/14 01:26:24;;;;;;;8.02;1.27;;;7.90;99.90;;;;;;4993415;28;20579;-77
2021/03/14 01:28:50;;;;;;;4.07;1.05;;;7.80;99.90;;;;;;5009547;28;20163;-77
2021/03/14 01:31:17;;;;;;;3.60;1.05;;;7.80;99.90;;;;;;4995177;28;20561;-77
2021/03/14 01:33:42;;;;;;;7.00;1.30;;;7.90;99.90;;;;;;4993699;28;20269;-77
2021/03/14 01:36:09;;;;;;;2.20;0.90;;;7.80;99.90;;;;;;4994672;28;20266;-77
2021/03/14 01:38:34;;;;;;;4.07;1.10;;;7.80;99.90;;;;;;4994000;28;20289;-77
2021/03/14 01:41:01;;;;;;;3.30;0.90;;;7.90;99.90;;;;;;5009580;28;20679;-77
2021/03/14 01:43:30;;;;;;;2.75;0.70;;;7.90;99.90;;;;;;4995804;28;21153;-77
2021/03/14 01:45:56;;;;;;;2.20;1.02;;;7.90;99.90;;;;;;4994538;28;20296;-76
2021/03/14 01:48:25;;;;;;;4.38;1.08;;;7.90;99.90;;;;;;5008869;28;20183;-77
2021/03/14 01:50:52;;;;;;;2.47;0.98;;;7.90;99.90;;;;;;4994394;28;20198;-77
2021/03/14 01:53:19;;;;;;;1.98;0.93;;;7.90;99.90;;;;;;4994139;28;20524;-77
2021/03/14 01:55:47;;;;;;;3.67;0.80;;;7.90;99.90;;;;;;4994113;28;20179;-77
2021/03/14 01:58:13;;;;;;;2.00;0.73;;;7.90;99.90;;;;;;4993844;28;20179;-77
2021/03/14 02:00:40;;;;;;;3.85;0.60;;;7.90;99.90;;;;;;4994296;28;20211;-76
2021/03/14 02:03:06;;;;;;;2.47;0.70;;;7.90;99.90;;;;;;4994666;28;20265;-77
2021/03/14 02:05:32;;;;;;;2.37;0.70;;;7.90;99.90;;;;;;4993442;28;20235;-77
2021/03/14 02:07:58;;;;;;;1.63;0.70;;;7.90;99.90;;;;;;4994058;28;20566;-77
2021/03/14 02:10:30;;;;;;;3.30;0.73;;;7.90;99.90;;;;;;5009003;28;21160;-77
2021/03/14 02:13:05;;;;;;;3.40;0.65;;;7.90;99.90;;;;;;4992830;28;20262;-77
2021/03/14 02:15:33;;;;;;;2.25;0.50;;;7.90;99.90;;;;;;4976355;28;20676;-77
2021/03/14 02:18:01;;;;;;;2.20;1.50;;;7.90;99.90;;;;;;5008415;28;20175;-77
2021/03/14 02:20:30;;;;;;;3.75;0.75;;;8.00;99.90;;;;;;5010223;28;20171;-77
2021/03/14 02:23:24;;;;;;;2.05;0.90;;;8.00;99.90;;;;;;4993827;28;20242;-77
2021/03/14 02:25:58;;;;;;;3.53;0.77;;;7.90;99.90;;;;;;4992382;28;20171;-77
2021/03/14 02:28:24;;;;;;;3.17;0.98;;;7.90;99.90;;;;;;4991748;28;20239;-77
2021/03/14 02:30:50;;;;;;;3.83;0.90;;;7.90;99.90;;;;;;4993247;28;20614;-76
2021/03/14 02:33:20;;;;;;;2.70;0.90;;;7.80;99.90;;;;;;4993468;28;20267;-77
2021/03/14 02:35:49;;;;;;;1.50;0.77;;;7.80;99.90;;;;;;4993359;28;20171;-77
2021/03/14 02:38:15;;;;;;;3.47;1.00;;;7.70;99.90;;;;;;5007945;28;20182;-77
2021/03/14 02:40:42;;;;;;;3.00;0.88;;;7.70;99.90;;;;;;5008216;28;20265;-77
2021/03/14 02:43:09;;;;;;;5.35;1.50;;;7.70;99.90;;;;;;4993159;28;20167;-77
2021/03/14 02:45:35;;;;;;;5.13;1.65;;;7.70;99.90;;;;;;4991870;28;20170;-77
2021/03/14 02:48:02;;;;;;;2.95;1.20;;;7.60;99.90;;;;;;5007859;28;20167;-77
2021/03/14 02:50:31;;;;;;;4.85;1.20;;;7.60;99.90;;;;;;5008301;28;20159;-77
2021/03/14 02:52:57;;;;;;;1.52;0.90;;;7.60;99.90;;;;;;5072335;22;20589;-78
2021/03/14 02:55:24;;;;;;;3.55;0.70;;;7.60;99.90;;;;;;5079334;28;20169;-78
2021/03/14 02:57:50;;;;;;;2.33;0.70;;;7.60;99.90;;;;;;5054201;28;20168;-77
2021/03/14 03:00:21;;;;;;;1.63;0.80;;;7.60;99.90;;;;;;5054086;28;20223;-78
2021/03/14 03:02:50;;;;;;;2.22;0.68;;;7.50;99.90;;;;;;5055848;28;20266;-78
2021/03/14 03:05:20;;;;;;;3.63;1.00;;;7.50;99.90;;;;;;5052123;28;20244;-78
2021/03/14 03:07:47;;;;;;;1.35;0.80;;;7.50;99.90;;;;;;5052097;28;20775;-77
2021/03/14 03:10:15;;;;;;;3.63;0.85;;;7.50;99.90;;;;;;5051905;28;20169;-77
2021/03/14 03:12:42;;;;;;;1.70;0.80;;;7.50;99.90;;;;;;5034187;28;20188;-77
2021/03/14 03:15:12;;;;;;;1.40;0.90;;;7.50;99.90;;;;;;5051912;28;20169;-76
2021/03/14 03:17:39;;;;;;;2.53;1.00;;;7.50;99.90;;;;;;5051753;28;20536;-78
2021/03/14 03:20:13;;;;;;;2.72;1.10;;;7.40;99.90;;;;;;5038725;28;20258;-77
2021/03/14 03:22:39;;;;;;;2.38;1.02;;;7.40;99.90;;;;;;5034259;28;20185;-78
2021/03/14 03:25:06;;;;;;;1.80;1.00;;;7.30;99.90;;;;;;5051915;28;20167;-75
2021/03/14 03:27:36;;;;;;;6.88;0.98;;;7.20;99.90;;;;;;5034004;28;21204;-77
2021/03/14 03:30:14;;;;;;;1.73;1.10;;;7.20;99.90;;;;;;5051372;28;20203;-77
2021/03/14 03:32:40;;;;;;;2.72;1.20;;;7.20;99.90;;;;;;5034133;28;20185;-77
2021/03/14 03:35:08;;;;;;;4.38;1.30;;;7.20;99.90;;;;;;5051605;28;20168;-77
2021/03/14 03:37:34;;;;;;;6.20;1.10;;;7.10;99.90;;;;;;5051788;28;20251;-77
2021/03/14 03:40:06;;;;;;;2.80;1.13;;;7.20;99.90;;;;;;5051200;28;20320;-76
2021/03/14 03:42:40;;;;;;;3.92;1.27;;;7.20;99.90;;;;;;5051825;28;20587;-77
2021/03/14 03:45:07;;;;;;;3.03;1.20;;;7.20;99.90;;;;;;5051669;28;20169;-77
2021/03/14 03:47:35;;;;;;;2.70;1.10;;;7.20;99.90;;;;;;5051549;28;20885;-78
2021/03/14 03:50:04;;;;;;;4.10;1.13;;;7.20;99.90;;;;;;5051493;28;20214;-76
2021/03/14 03:52:32;;;;;;;4.70;1.30;;;7.20;99.90;;;;;;5051255;28;20196;-76
2021/03/14 03:54:58;;;;;;;4.18;1.50;;;7.20;99.90;;;;;;5033889;28;20230;-77
2021/03/14 03:57:24;;;;;;;3.05;1.10;;;7.20;99.90;;;;;;5056060;28;20248;-78
2021/03/14 03:59:54;;;;;;;7.30;1.85;;;7.30;99.90;;;;;;5034758;28;20193;-77
2021/03/14 04:02:26;;;;;;;2.53;1.20;;;7.30;99.90;;;;;;5033992;28;20185;-78
2021/03/14 04:04:57;;;;;;;3.40;1.70;;;7.30;99.90;;;;;;5019493;28;20165;-78
2021/03/14 04:07:26;;;;;;;3.88;1.50;;;7.30;99.90;;;;;;5056605;28;20160;-77
2021/03/14 04:09:53;;;;;;;5.45;1.73;;;7.30;99.90;;;;;;5078777;28;20169;-77
2021/03/14 04:12:25;;;;;;;6.53;1.65;;;7.30;99.90;;;;;;5090190;28;20185;-78
2021/03/14 04:14:52;;;;;;;3.40;1.83;;;7.30;99.90;;;;;;5089802;28;20152;-77
2021/03/14 04:17:26;;;;;;;3.47;1.65;;;7.40;99.90;;;;;;5089629;28;20168;-77
2021/03/14 04:19:55;;;;;;;3.40;1.45;;;7.30;99.90;;;;;;5089175;28;20196;-77
2021/03/14 04:22:35;;;;;;;2.65;1.40;;;7.30;99.90;;;;;;5073007;28;20219;-77
2021/03/14 04:25:02;;;;;;;5.03;1.20;;;7.40;99.90;;;;;;5072271;28;20168;-77
2021/03/14 04:27:32;;;;;;;6.90;2.45;;;7.30;99.90;;;;;;5053775;28;20226;-78
2021/03/14 04:30:05;;;;;;;3.22;1.00;;;7.40;99.90;;;;;;5075268;28;20663;-78
2021/03/14 04:32:36;;;;;;;3.97;1.45;;;7.40;99.90;;;;;;5075842;28;20238;-78
2021/03/14 04:35:07;;;;;;;2.67;0.90;;;7.40;99.90;;;;;;5060352;28;20179;-77
2021/03/14 04:37:38;;;;;;;3.13;1.08;;;7.30;99.90;;;;;;5057626;28;20172;-78
2021/03/14 04:40:09;;;;;;;6.78;1.33;;;7.30;99.90;;;;;;5040562;28;20204;-78
2021/03/14 04:42:40;;;;;;;6.05;1.20;;;7.40;99.90;;;;;;5074846;28;20551;-77
2021/03/14 04:45:07;;;;;;;4.60;1.48;;;7.30;99.90;;;;;;5074961;28;20168;-77
2021/03/14 04:47:34;;;;;;;4.28;1.92;;;7.30;99.90;;;;;;5056982;28;20164;-78
2021/03/14 04:50:00;;;;;;;2.35;1.10;;;7.30;99.90;;;;;;5074591;28;20168;-77
2021/03/14 04:52:27;;;;;;;2.38;1.25;;;7.30;99.90;;;;;;5074485;28;20231;-78
2021/03/14 04:54:58;;;;;;;2.83;1.27;;;7.30;99.90;;;;;;5074826;28;20245;-77
2021/03/14 04:57:24;;;;;;;7.55;2.00;;;7.30;99.90;;;;;;5040193;28;20560;-78
2021/03/14 04:59:51;;;;;;;5.05;1.45;;;7.40;99.90;;;;;;5074567;28;20648;-78
2021/03/14 05:02:19;;;;;;;4.32;1.40;;;7.30;99.90;;;;;;5074355;28;20215;-78
2021/03/14 05:04:51;;;;;;;5.20;1.40;;;7.30;99.90;;;;;;5074659;28;20172;-78
2021/03/14 05:07:22;;;;;;;4.80;1.35;;;7.30;99.90;;;;;;5074751;28;20160;-78
2021/03/14 05:09:49;;;;;;;4.00;1.10;;;7.30;99.90;;;;;;5075362;28;20164;-78
2021/03/14 05:12:17;;;;;;;2.28;1.30;;;7.20;99.90;;;;;;5059522;28;20185;-78
2021/03/14 05:14:43;;;;;;;5.72;1.30;;;7.20;99.90;;;;;;5056588;28;20176;-78
2021/03/14 05:17:12;;;;;;;4.38;1.33;;;7.20;99.90;;;;;;5056416;28;20168;-77
2021/03/14 05:19:38;;;;;;;4.82;1.48;;;7.20;99.90;;;;;;5074141;28;20559;-78
2021/03/14 05:22:04;;;;;;;4.90;1.38;;;7.20;99.90;;;;;;5074239;28;20548;-78
2021/03/14 05:24:30;;;;;;;7.90;1.50;;;7.10;99.90;;;;;;5074297;28;20178;-78
2021/03/14 05:26:59;;;;;;;3.40;1.27;;;7.10;99.90;;;;;;5056441;28;20177;-77
2021/03/14 05:29:28;;;;;;;2.70;1.40;;;7.10;99.90;;;;;;5073951;28;20176;-77
2021/03/14 05:31:56;;;;;;;3.40;1.30;;;7.10;99.90;;;;;;5056531;28;20547;-77
2021/03/14 05:34:22;;;;;;;2.88;1.10;;;7.10;99.90;;;;;;5056408;28;20192;-77
2021/03/14 05:36:51;;;;;;;5.47;1.40;;;7.10;99.90;;;;;;5075452;28;20173;-77
2021/03/14 05:39:17;;;;;;;3.67;1.20;;;7.10;99.90;;;;;;5078346;28;20180;-78
2021/03/14 05:41:46;;;;;;;7.00;1.55;;;7.20;99.90;;;;;;5074602;28;20188;-77
2021/03/14 05:44:12;;;;;;;4.17;1.47;;;7.20;99.90;;;;;;5057414;28;20616;-77
2021/03/14 05:46:38;;;;;;;6.53;1.75;;;7.20;99.90;;;;;;5079321;28;20199;-77
2021/03/14 05:49:07;;;;;;;2.75;1.10;;;7.20;99.90;;;;;;5062339;28;20172;-77
2021/03/14 05:51:36;;;;;;;13.07;3.10;;;7.20;99.90;;;;;;5063742;28;20192;-77
2021/03/14 05:54:03;;;;;;;5.40;1.48;;;7.20;99.90;;;;;;5077896;28;20171;-78
2021/03/14 05:56:29;;;;;;;5.05;1.35;;;7.20;99.90;;;;;;5077907;28;20184;-77
2021/03/14 05:59:08;;;;;;;3.88;1.17;;;7.30;99.90;;;;;;5077884;28;20203;-77
2021/03/14 06:01:34;;;;;;;8.20;1.83;;;7.30;99.90;;;;;;5096683;28;20943;-77
2021/03/14 06:04:00;;;;;;;4.00;1.60;;;7.30;99.90;;;;;;5079444;28;20165;-78
2021/03/14 06:06:26;;;;;;;3.55;1.63;;;7.40;99.90;;;;;;5093782;28;20563;-77
2021/03/14 06:08:52;;;;;;;8.40;2.03;;;7.40;99.90;;;;;;5094785;28;20179;-76
2021/03/14 06:11:19;;;;;;;6.68;2.00;;;7.50;99.90;;;;;;5090974;28;20261;-78
2021/03/14 06:13:45;;;;;;;6.18;1.60;;;7.50;99.90;;;;;;5082938;28;20168;-79
2021/03/14 06:16:11;;;;;;;3.70;2.35;;;7.60;99.90;;;;;;5078607;28;20169;-78
2021/03/14 06:18:38;;;;;;;3.85;2.00;;;7.70;99.90;;;;;;5075333;28;20565;-77
2021/03/14 06:21:23;;;;;;;3.47;2.30;;;7.70;99.90;;;;;;5075105;28;20277;-76
2021/03/14 06:23:56;;;;;;;4.55;2.22;;;7.70;99.90;;;;;;5075653;28;20156;-76
2021/03/14 06:26:35;;;;;;;6.78;2.10;;;7.80;99.90;;;;;;5060208;28;20628;-77
2021/03/14 06:29:16;;;;;;;4.15;2.17;;;7.80;99.90;;;;;;5074342;28;20569;-77
2021/03/14 06:31:50;;;;;;;7.53;2.65;;;7.90;99.90;;;;;;5074066;28;20184;-77
2021/03/14 06:34:38;;;;;;;10.25;2.33;;;7.90;99.90;;;;;;5056753;28;20195;-78
2021/03/14 06:37:07;;;;;;;4.25;2.10;;;7.90;99.90;;;;;;5074432;28;20168;-77
2021/03/14 06:39:34;;;;;;;5.20;2.60;;;7.90;99.90;;;;;;5056900;28;20196;-78
2021/03/14 06:42:04;;;;;;;4.88;2.35;;;7.90;99.90;;;;;;5078836;28;20533;-77
2021/03/14 06:44:32;;;;;;;7.03;2.50;;;7.90;99.90;;;;;;5075170;28;20179;-78
2021/03/14 06:46:59;;;;;;;5.70;2.92;;;8.00;99.90;;;;;;5075559;28;20219;-78
2021/03/14 06:49:27;;;;;;;3.88;2.25;;;8.00;99.90;;;;;;5073752;28;20215;-77
2021/03/14 06:51:54;;;;;;;5.95;3.28;;;8.00;99.90;;;;;;5055247;28;20211;-78
2021/03/14 06:54:26;;;;;;;5.00;2.20;;;8.10;99.90;;;;;;5075276;28;20175;-77
2021/03/14 06:57:18;;;;;;;3.83;2.20;;;8.10;99.90;;;;;;5061945;28;20168;-77
2021/03/14 06:59:51;;;;;;;10.48;2.67;;;8.20;99.90;;;;;;5077919;28;20294;-77
2021/03/14 07:02:24;;;;;;;7.47;2.70;;;8.20;99.90;;;;;;5059992;28;20189;-76
2021/03/14 07:05:13;;;;;;;6.78;2.13;;;8.20;99.90;;;;;;5084098;28;20164;-77
2021/03/14 07:07:41;;;;;;;4.22;2.15;;;8.30;99.90;;;;;;5080031;28;20222;-77
2021/03/14 07:10:11;;;;;;;4.55;2.42;;;8.40;99.90;;;;;;5082817;28;20175;-77
2021/03/14 07:12:38;;;;;;;5.97;2.65;;;8.40;99.90;;;;;;5050097;28;20268;-77
2021/03/14 07:15:23;;;;;;;4.88;2.03;;;8.50;99.90;;;;;;5079694;28;20172;-77
2021/03/14 07:17:54;;;;;;;5.90;2.20;;;8.50;99.90;;;;;;5076221;28;20188;-76
2021/03/14 07:20:27;;;;;;;3.55;2.30;;;8.60;99.90;;;;;;5062569;28;20199;-76
2021/03/14 07:23:01;;;;;;;4.10;1.80;;;8.60;99.90;;;;;;5050736;28;20188;-76
2021/03/14 07:25:28;;;;;;;5.57;2.88;;;8.70;99.90;;;;;;5061746;28;20164;-77
2021/03/14 07:27:54;;;;;;;6.75;1.98;;;8.80;99.90;;;;;;5072188;28;20170;-76
2021/03/14 07:30:25;;;;;;;5.40;2.40;;;8.80;99.90;;;;;;5065819;28;20204;-77
2021/03/14 07:32:52;;;;;;;3.78;2.70;;;8.90;99.90;;;;;;5055649;28;20219;-76
2021/03/14 07:35:22;;;;;;;6.40;1.90;;;9.10;99.90;;;;;;5035743;28;20563;-75
2021/03/14 07:37:53;;;;;;;5.72;2.17;;;9.20;99.90;;;;;;5056834;28;20171;-77
2021/03/14 07:40:22;;;;;;;3.92;1.67;;;9.30;99.90;;;;;;5065530;28;20223;-76
2021/03/14 07:42:48;;;;;;;3.75;2.50;;;9.50;99.90;;;;;;5061279;28;20501;-77
2021/03/14 07:45:17;;;;;;;5.10;2.00;;;9.60;99.90;;;;;;5069531;28;20183;-77
2021/03/14 07:47:47;;;;;;;4.57;2.20;;;9.70;99.90;;;;;;5081222;28;20173;-77
2021/03/14 07:50:20;;;;;;;8.00;2.78;;;9.80;99.90;;;;;;5044189;28;20177;-76
2021/03/14 07:52:53;;;;;;;5.10;2.30;;;9.90;99.90;;;;;;5056925;28;20558;-77
2021/03/14 07:55:21;;;;;;;6.68;2.08;;;10.00;99.90;;;;;;5054682;28;20260;-77
2021/03/14 07:57:49;;;;;;;9.40;1.98;;;10.10;99.90;;;;;;5043095;28;20181;-77
2021/03/14 08:00:27;;;;;;;3.65;1.60;;;10.20;99.90;;;;;;5037021;28;20226;-76
2021/03/14 08:03:01;;;;;;;6.57;2.42;;;10.10;99.90;;;;;;5075049;28;20200;-76
2021/03/14 08:05:39;;;;;;;4.63;1.90;;;10.10;99.90;;;;;;5069541;28;20196;-76
2021/03/14 08:08:06;;;;;;;3.15;1.88;;;10.10;99.90;;;;;;5062417;28;20172;-76
2021/03/14 08:10:53;;;;;;;5.72;2.40;;;10.00;99.90;;;;;;5057897;28;20165;-76
2021/03/14 08:13:31;;;;;;;6.18;2.17;;;9.90;99.90;;;;;;5053614;28;20249;-76
2021/03/14 08:16:08;;;;;;;7.57;1.88;;;9.90;99.90;;;;;;5082498;28;20274;-76
2021/03/14 08:18:48;;;;;;;4.20;1.98;;;9.90;99.90;;;;;;5076347;28;20223;-76
2021/03/14 08:21:23;;;;;;;4.82;2.25;;;9.90;99.90;;;;;;5031984;28;20283;-77
2021/03/14 08:23:52;;;;;;;4.60;2.30;;;9.90;99.90;;;;;;5052745;28;20255;-78
2021/03/14 08:26:27;;;;;;;3.80;1.80;;;9.90;99.90;;;;;;5071160;28;20567;-77
2021/03/14 08:28:53;;;;;;;7.85;2.17;;;10.00;99.90;;;;;;5077178;28;20225;-76
2021/03/14 08:31:55;;;;;;;4.50;2.10;;;10.00;99.90;;;;;;5075742;28;20276;-76
2021/03/14 08:34:25;;;;;;;4.55;1.80;;;10.00;99.90;;;;;;4986305;28;20207;-77
2021/03/14 08:36:53;;;;;;;4.60;2.00;;;10.10;99.90;;;;;;5038452;28;20252;-77
2021/03/14 08:39:34;;;;;;;9.45;2.55;;;10.10;99.90;;;;;;5066669;28;20563;-77
2021/03/14 08:42:08;;;;;;;5.15;2.25;;;10.10;99.90;;;;;;5060028;28;20192;-78
2021/03/14 08:44:46;;;;;;;5.63;2.72;;;10.00;99.90;;;;;;5067667;28;20169;-78
2021/03/14 08:47:37;;;;;;;4.93;2.60;;;10.00;99.90;;;;;;5059473;28;20192;-77
2021/03/14 08:50:11;;;;;;;7.20;2.83;;;10.00;99.90;;;;;;5042667;28;20217;-77
2021/03/14 08:52:46;;;;;;;4.32;2.28;;;10.00;99.90;;;;;;5059922;28;20201;-77
2021/03/14 08:55:35;;;;;;;7.28;2.88;;;10.00;99.90;;;;;;5032697;28;20179;-77
2021/03/14 08:58:13;;;;;;;8.67;3.53;;;10.00;99.90;;;;;;5056930;28;20169;-77
2021/03/14 09:00:39;;;;;;;5.10;2.33;;;10.10;99.90;;;;;;5063088;28;20578;-77
2021/03/14 09:03:05;;;;;;;4.13;2.50;;;10.10;99.90;;;;;;5040240;28;20189;-77
2021/03/14 09:06:22;;;;;;;7.13;2.35;;;10.10;99.90;;;;;;5050817;28;20559;-81
2021/03/14 09:09:04;;;;;;;11.05;2.90;;;10.10;99.90;;;;;;5081928;28;20171;-80
2021/03/14 09:12:01;;;;;;;6.80;3.05;;;10.10;99.90;;;;;;5299846;22;20232;-80
2021/03/14 09:15:09;;;;;;;4.82;2.15;;;10.20;99.90;;;;;;5046297;28;20174;-80
2021/03/14 09:20:41;;;;;;;4.55;2.20;;;10.30;99.90;;;;;;5078066;28;20204;-81
2021/03/14 09:23:07;;;;;;;4.82;2.20;;;10.30;99.90;;;;;;5079716;28;20176;-80
2021/03/14 09:25:55;;;;;;;4.75;2.00;;;10.30;99.90;;;;;;5062623;28;20192;-81
2021/03/14 09:28:27;;;;;;;6.78;1.95;;;10.30;99.90;;;;;;5062312;28;20133;-81
2021/03/14 09:31:00;;;;;;;6.95;2.42;;;10.30;99.90;;;;;;5075995;28;20192;-80
2021/03/14 09:33:37;;;;;;;6.43;1.65;;;10.30;99.90;;;;;;5079785;28;20149;-81
2021/03/14 09:36:14;;;;;;;3.90;1.60;;;10.20;99.90;;;;;;5064081;28;20153;-81
2021/03/14 09:38:59;;;;;;;1.95;1.30;;;10.20;99.90;;;;;;5078579;28;20208;-81
2021/03/14 09:41:46;;;;;;;2.28;1.33;;;10.20;99.90;;;;;;5046592;28;20200;-77
2021/03/14 09:44:32;;;;;;;2.30;1.45;;;10.10;99.90;;;;;;5057084;28;20169;-77
2021/03/14 09:47:05;;;;;;;1.95;1.13;;;10.10;99.90;;;;;;5038832;28;20176;-77
2021/03/14 09:50:09;;;;;;;2.55;0.98;;;10.10;99.90;;;;;;5027335;28;20250;-77
2021/03/14 09:52:41;;;;;;;1.73;0.90;;;10.00;99.90;;;;;;5032776;28;20548;-76
2021/03/14 09:55:08;;;;;;;2.28;1.00;;;10.00;99.90;;;;;;5053905;28;20571;-75
2021/03/14 09:57:34;;;;;;;3.90;3.08;;;10.00;99.90;;;;;;5038779;28;20808;-75
2021/03/14 10:00:11;;;;;;;8.13;5.90;;;9.80;99.90;;;;;;5051645;28;20732;-75
2021/03/14 10:03:01;;;;;;;7.70;5.00;;;9.80;99.90;;;;;;5050618;28;20732;-75
2021/03/14 10:05:56;;;;;;;4.47;2.58;;;9.70;99.90;;;;;;5034024;28;20569;-75
2021/03/14 10:08:35;;;;;;;2.80;2.08;;;9.80;99.90;;;;;;5033449;28;20702;-76
2021/03/14 10:11:15;;;;;;;3.60;2.80;;;9.70;99.90;;;;;;5032336;28;20729;-76
2021/03/14 10:13:52;;;;;;;6.55;3.22;;;9.60;99.90;;;;;;5049940;28;20595;-75
2021/03/14 10:16:19;;;;;;;4.82;3.03;;;9.60;99.90;;;;;;5032518;28;20756;-76
2021/03/14 10:18:58;;;;;;;2.13;1.92;;;9.60;99.90;;;;;;5032069;28;20209;-77
2021/03/14 10:21:28;;;;;;;4.45;2.63;;;9.60;99.90;;;;;;5033527;28;20190;-77
2021/03/14 10:24:18;;;;;;;2.70;1.80;;;9.60;99.90;;;;;;5013778;28;20571;-75
2021/03/14 10:26:57;;;;;;;2.47;1.80;;;9.60;99.90;;;;;;5020055;28;20210;-75
2021/03/14 10:29:32;;;;;;;3.25;2.17;;;9.50;99.90;;;;;;5040974;28;20173;-75
2021/03/14 10:32:27;;;;;;;3.00;2.13;;;9.50;99.90;;;;;;5017709;28;20197;-76
2021/03/14 10:34:58;;;;;;;2.53;2.15;;;9.50;99.90;;;;;;5019201;28;20191;-77
2021/03/14 10:37:28;;;;;;;4.95;2.60;;;9.50;99.90;;;;;;5052315;28;20558;-76
2021/03/14 10:40:04;;;;;;;3.15;2.85;;;9.50;99.90;;;;;;5051131;28;20247;-76
2021/03/14 10:42:34;;;;;;;5.93;4.32;;;9.60;99.90;;;;;;5052542;28;20592;-77
2021/03/14 10:45:10;;;;;;;6.68;3.78;;;9.80;99.90;;;;;;5039940;28;20188;-76
2021/03/14 10:47:38;;;;;;;6.75;4.50;;;10.00;99.90;;;;;;5053063;28;20171;-77
2021/03/14 10:50:15;;;;;;;5.03;3.60;;;10.20;99.90;;;;;;5034159;28;20532;-76
2021/03/14 10:52:45;;;;;;;3.83;2.83;;;10.40;99.90;;;;;;5057940;28;20192;-76
2021/03/14 10:55:30;;;;;;;3.95;3.08;;;10.60;99.90;;;;;;5065317;28;20173;-76
2021/03/14 10:58:33;;;;;;;2.67;2.28;;;10.90;99.90;;;;;;5078707;28;20175;-77
2021/03/14 11:01:14;;;;;;;3.17;2.75;;;11.00;99.90;;;;;;5072288;28;20192;-77
2021/03/14 11:03:40;;;;;;;3.05;2.38;;;11.20;99.90;;;;;;5058948;28;20176;-77
2021/03/14 11:06:21;;;;;;;7.25;1.90;;;11.30;99.90;;;;;;5056807;28;20172;-77
2021/03/14 11:08:56;;;;;;;1.95;1.30;;;11.30;99.90;;;;;;5057740;28;20187;-77
2021/03/14 11:11:46;;;;;;;2.25;1.48;;;11.40;99.90;;;;;;5055562;28;20548;-77
2021/03/14 11:14:35;;;;;;;2.08;1.63;;;11.40;99.90;;;;;;5037227;28;20196;-77
2021/03/14 11:17:28;;;;;;;2.08;1.23;;;11.30;99.90;;;;;;5059043;28;20242;-78
2021/03/14 11:20:08;;;;;;;1.80;1.60;;;11.30;99.90;;;;;;5051448;28;20193;-77
2021/03/14 11:22:42;;;;;;;2.58;1.60;;;11.20;99.90;;;;;;5054213;28;20200;-78
2021/03/14 11:25:12;;;;;;;2.20;1.30;;;11.10;99.90;;;;;;5060822;28;20188;-77
2021/03/14 11:27:39;;;;;;;3.53;1.40;;;11.10;99.90;;;;;;5070844;28;20175;-77
2021/03/14 11:30:08;;;;;;;3.25;1.80;;;11.00;99.90;;;;;;5053211;28;20169;-77
2021/03/14 11:32:36;;;;;;;2.17;1.98;;;11.00;99.90;;;;;;5070626;28;20227;-77
2021/03/14 11:35:31;;;;;;;2.35;2.15;;;11.00;99.90;;;;;;5039433;28;20182;-77
2021/03/14 11:38:16;;;;;;;2.58;2.38;;;11.10;99.90;;;;;;5037481;28;20177;-78
2021/03/14 11:41:08;;;;;;;2.75;1.98;;;11.20;99.90;;;;;;5061001;28;20234;-77
2021/03/14 11:43:53;;;;;;;2.20;1.83;;;11.40;99.90;;;;;;5054691;28;20179;-77
2021/03/14 11:46:22;;;;;;;1.95;1.75;;;11.70;99.90;;;;;;5034661;28;20176;-77
2021/03/14 11:49:00;;;;;;;2.83;1.65;;;12.00;99.90;;;;;;5053331;28;20176;-76
2021/03/14 11:51:27;;;;;;;2.80;2.60;;;12.30;99.90;;;;;;5049998;28;20233;-76
2021/03/14 11:53:59;;;;;;;2.20;2.00;;;12.80;99.90;;;;;;5055859;28;20192;-78
2021/03/14 11:56:27;;;;;;;2.00;1.80;;;13.20;99.90;;;;;;5053364;28;20173;-77
2021/03/14 11:58:58;;;;;;;1.80;1.13;;;13.50;99.90;;;;;;5055151;28;20552;-77
2021/03/14 12:01:28;;;;;;;1.70;1.40;;;13.70;99.90;;;;;;5050407;28;20752;-77
2021/03/14 12:03:59;;;;;;;3.20;1.35;;;13.90;99.90;;;;;;5040973;28;20176;-77
2021/03/14 12:06:32;;;;;;;3.22;2.53;;;14.10;99.90;;;;;;5030950;28;20253;-78
2021/03/14 12:09:19;;;;;;;3.90;3.50;;;14.10;99.90;;;;;;5032134;28;20249;-76
2021/03/14 12:11:46;;;;;;;4.93;3.10;;;14.00;99.90;;;;;;5013945;28;20580;-77
2021/03/14 12:14:16;;;;;;;4.43;3.00;;;13.90;99.90;;;;;;5034786;28;20683;-76
2021/03/14 12:16:56;;;;;;;5.00;3.40;;;13.80;99.90;;;;;;5034582;28;20173;-76
2021/03/14 12:19:30;;;;;;;2.50;1.90;;;13.50;99.90;;;;;;5033773;28;20545;-77
2021/03/14 12:21:56;;;;;;;3.58;2.50;;;13.20;99.90;;;;;;5034252;28;20217;-77
2021/03/14 12:24:22;;;;;;;3.43;2.53;;;13.00;99.90;;;;;;5032501;28;20239;-77
2021/03/14 12:26:48;;;;;;;3.70;2.58;;;12.80;99.90;;;;;;5032068;28;20988;-76
2021/03/14 12:29:23;;;;;;;3.67;2.47;;;12.70;99.90;;;;;;5055731;28;20172;-77
2021/03/14 12:31:55;;;;;;;2.95;2.65;;;12.60;99.90;;;;;;5044952;28;20207;-76
2021/03/14 12:34:21;;;;;;;2.80;1.90;;;12.60;99.90;;;;;;5055715;28;20638;-78
2021/03/14 12:36:50;;;;;;;2.60;2.00;;;12.60;99.90;;;;;;5038469;28;20625;-77
2021/03/14 12:39:24;;;;;;;3.55;2.80;;;12.60;99.90;;;;;;5050004;28;20557;-77
2021/03/14 12:41:51;;;;;;;3.78;2.90;;;12.70;99.90;;;;;;5050032;28;20609;-76
2021/03/14 12:44:18;;;;;;;2.53;2.33;;;12.80;99.90;;;;;;5063512;28;20168;-77
2021/03/14 12:46:44;;;;;;;3.10;2.60;;;12.80;99.90;;;;;;5053599;28;20718;-75
2021/03/14 12:49:10;;;;;;;3.30;3.00;;;12.80;99.90;;;;;;5069784;28;20172;-76
2021/03/14 12:51:36;;;;;;;4.03;3.10;;;12.80;99.90;;;;;;5044959;28;20703;-76
2021/03/14 12:54:05;;;;;;;4.57;3.13;;;12.90;99.90;;;;;;5046935;28;20165;-78
2021/03/14 12:56:31;;;;;;;3.43;2.40;;;12.90;99.90;;;;;;5049879;28;20169;-78
2021/03/14 12:59:03;;;;;;;3.78;3.38;;;12.80;99.90;;;;;;5071479;28;20639;-78
2021/03/14 13:01:32;;;;;;;3.03;2.80;;;12.80;99.90;;;;;;5044992;28;20251;-77
2021/03/14 13:03:58;;;;;;;3.23;2.93;;;12.70;99.90;;;;;;5059075;28;20165;-77
2021/03/14 13:06:24;;;;;;;5.63;3.60;;;12.70;99.90;;;;;;5053336;28;20166;-78
2021/03/14 13:08:50;;;;;;;4.40;2.63;;;12.70;99.90;;;;;;5034758;28;20699;-77
2021/03/14 13:11:17;;;;;;;3.70;3.30;;;12.60;99.90;;;;;;5049058;28;20233;-77
2021/03/14 13:13:46;;;;;;;4.78;3.85;;;12.60;99.90;;;;;;5054945;28;20178;-79
2021/03/14 13:16:12;;;;;;;4.67;4.00;;;12.60;99.90;;;;;;5056057;28;20180;-77
2021/03/14 13:18:37;;;;;;;3.80;3.17;;;12.70;99.90;;;;;;5070876;28;20188;-76